Time;durP1;ratioP1;P1;durP2;ratioP2;P2;SDS_P1;SDS_P2;PMS_P1;PMS_P2;Temp;Humidity;BMP_temperature;BMP_pressure;BME280_temperature;BME280_humidity;BME280_pressure;Samples;Min_cycle;Max_cycle;Signal;HPM_P1;HPM_P2
2023/09/03 00:00:15;0.00;0.00;0.62;0.00;0.00;0.62;4.80;2.50;;;28.70;30.50;;;;;;2265854;61;20498;-57
2023/09/03 00:03:00;0.00;0.00;0.62;0.00;0.00;0.62;4.03;2.77;;;28.70;30.40;;;;;;2265551;61;20819;-57
2023/09/03 00:05:49;0.00;0.00;0.62;0.00;0.00;0.62;3.00;2.70;;;28.60;30.40;;;;;;2265652;61;20388;-55
2023/09/03 00:08:33;0.00;0.00;0.62;0.00;0.00;0.62;2.80;2.50;;;28.60;31.00;;;;;;2266171;61;20364;-55
2023/09/03 00:11:18;0.00;0.00;0.62;0.00;0.00;0.62;2.90;2.60;;;28.60;30.30;;;;;;2266089;61;20368;-56
2023/09/03 00:14:05;0.00;0.00;0.62;0.00;0.00;0.62;2.90;2.13;;;28.60;30.30;;;;;;2265720;61;20442;-57
2023/09/03 00:16:49;0.00;0.00;0.62;0.00;0.00;0.62;3.10;2.80;;;28.60;30.30;;;;;;2266262;61;20372;-55
2023/09/03 00:19:35;0.00;0.00;0.62;0.00;0.00;0.62;4.40;2.40;;;28.60;30.30;;;;;;2266506;61;20396;-60
2023/09/03 00:22:20;0.00;0.00;0.62;0.00;0.00;0.62;3.20;2.90;;;28.60;30.30;;;;;;2265936;61;20456;-52
2023/09/03 00:25:09;0.00;0.00;0.62;0.00;0.00;0.62;3.33;2.57;;;28.60;31.00;;;;;;2265619;61;20485;-56
2023/09/03 00:27:54;0.00;0.00;0.62;0.00;0.00;0.62;2.90;2.60;;;28.60;30.30;;;;;;2266189;61;20363;-56
2023/09/03 00:30:40;0.00;0.00;0.62;0.00;0.00;0.62;2.77;2.20;;;28.60;30.30;;;;;;2262758;61;20383;-56
2023/09/03 00:33:25;0.00;0.00;0.62;0.00;0.00;0.62;3.23;2.90;;;28.60;30.30;;;;;;2265502;61;20441;-55
2023/09/03 00:36:10;0.00;0.00;0.62;0.00;0.00;0.62;2.97;2.73;;;28.60;30.30;;;;;;2265715;61;20426;-55
2023/09/03 00:38:57;0.00;0.00;0.62;0.00;0.00;0.62;3.07;2.60;;;28.60;30.30;;;;;;2266287;61;20364;-56
2023/09/03 00:41:42;0.00;0.00;0.62;0.00;0.00;0.62;3.20;2.83;;;28.50;30.20;;;;;;2265477;61;20383;-54
2023/09/03 00:44:26;0.00;0.00;0.62;0.00;0.00;0.62;4.53;2.90;;;28.60;30.30;;;;;;2265321;61;20390;-54
2023/09/03 00:47:12;0.00;0.00;0.62;0.00;0.00;0.62;2.43;2.23;;;28.50;30.20;;;;;;2265645;61;20878;-56
2023/09/03 00:49:59;0.00;0.00;0.62;0.00;0.00;0.62;2.90;2.60;;;28.50;30.20;;;;;;2266597;61;20398;-56
2023/09/03 00:52:44;0.00;0.00;0.62;0.00;0.00;0.62;3.60;2.70;;;28.50;30.20;;;;;;2266543;61;20944;-52
2023/09/03 00:55:29;0.00;0.00;0.62;0.00;0.00;0.62;2.70;2.50;;;28.50;30.20;;;;;;2265413;61;20380;-51
2023/09/03 00:58:14;0.00;0.00;0.62;0.00;0.00;0.62;2.47;2.20;;;28.50;30.20;;;;;;2266317;61;20402;-58
2023/09/03 01:00:59;0.00;0.00;0.62;0.00;0.00;0.62;2.93;2.63;;;28.50;30.20;;;;;;2265728;61;20388;-57
2023/09/03 01:03:46;0.00;0.00;0.62;0.00;0.00;0.62;2.33;2.13;;;28.50;30.20;;;;;;2266334;61;20502;-55
2023/09/03 01:06:31;0.00;0.00;0.62;0.00;0.00;0.62;2.50;2.30;;;28.50;30.20;;;;;;2266352;61;20449;-54
2023/09/03 01:09:18;0.00;0.00;0.62;0.00;0.00;0.62;2.30;2.10;;;28.50;30.20;;;;;;2265914;61;20367;-55
2023/09/03 01:12:12;0.00;0.00;0.62;0.00;0.00;0.62;2.90;2.43;;;28.50;30.20;;;;;;2266250;61;20445;-55
2023/09/03 01:15:04;0.00;0.00;0.62;0.00;0.00;0.62;3.27;2.70;;;28.50;30.20;;;;;;2265821;61;20446;-57
2023/09/03 01:17:56;0.00;0.00;0.62;0.00;0.00;0.62;3.60;2.77;;;28.50;30.20;;;;;;2265974;61;20820;-57
2023/09/03 01:20:50;0.00;0.00;0.62;0.00;0.00;0.62;2.97;2.23;;;28.40;30.10;;;;;;2262636;61;20360;-55
2023/09/03 01:23:42;0.00;0.00;0.62;0.00;0.00;0.62;2.60;2.40;;;28.40;30.10;;;;;;2265893;61;20875;-55
2023/09/03 01:26:51;0.00;0.00;0.62;0.00;0.00;0.62;2.73;2.40;;;28.40;30.10;;;;;;2266026;61;20387;-57
2023/09/03 01:29:41;0.00;0.00;0.62;0.00;0.00;0.62;3.50;2.43;;;28.40;30.10;;;;;;2266345;61;20419;-54
2023/09/03 01:32:26;0.00;0.00;0.62;0.00;0.00;0.62;2.60;2.23;;;28.40;30.10;;;;;;2265557;61;20409;-54
2023/09/03 01:35:11;0.00;0.00;0.62;0.00;0.00;0.62;3.07;2.67;;;28.40;30.10;;;;;;2265650;61;20463;-55
2023/09/03 01:37:56;0.00;0.00;0.62;0.00;0.00;0.62;2.30;2.07;;;28.40;30.10;;;;;;2265527;61;20882;-57
2023/09/03 01:40:41;0.00;0.00;0.62;0.00;0.00;0.62;2.80;2.40;;;28.40;30.10;;;;;;2265705;61;20368;-54
2023/09/03 01:43:28;0.00;0.00;0.62;0.00;0.00;0.62;3.00;2.37;;;28.40;30.10;;;;;;2265754;61;20770;-56
2023/09/03 01:46:22;0.00;0.00;0.62;0.00;0.00;0.62;2.50;2.20;;;28.40;30.00;;;;;;2265628;61;20379;-53
2023/09/03 01:49:23;0.00;0.00;0.62;0.00;0.00;0.62;2.60;2.40;;;28.40;30.10;;;;;;2265243;61;20372;-55
2023/09/03 01:52:21;0.00;0.00;0.62;0.00;0.00;0.62;2.83;2.50;;;28.40;30.10;;;;;;2261893;61;20416;-56
2023/09/03 01:55:11;0.00;0.00;0.62;0.00;0.00;0.62;2.67;2.40;;;28.40;30.00;;;;;;2260077;61;20937;-53
2023/09/03 01:58:00;0.00;0.00;0.62;0.00;0.00;0.62;3.00;2.60;;;28.40;30.10;;;;;;2266266;61;20406;-54
2023/09/03 02:00:46;0.00;0.00;0.62;0.00;0.00;0.62;2.37;2.10;;;28.40;30.00;;;;;;2263011;61;20471;-52
2023/09/03 02:03:33;0.00;0.00;0.62;0.00;0.00;0.62;3.07;2.77;;;28.40;30.00;;;;;;2265759;61;20394;-54
2023/09/03 02:06:18;0.00;0.00;0.62;0.00;0.00;0.62;2.43;2.23;;;28.40;30.00;;;;;;2265925;61;20370;-54
2023/09/03 02:09:03;0.00;0.00;0.62;0.00;0.00;0.62;2.80;2.30;;;28.40;30.00;;;;;;2265495;61;20399;-57
2023/09/03 02:11:48;0.00;0.00;0.62;0.00;0.00;0.62;3.23;2.40;;;28.30;30.00;;;;;;2265944;61;20952;-58
2023/09/03 02:14:33;0.00;0.00;0.62;0.00;0.00;0.62;2.13;1.90;;;28.30;30.00;;;;;;2265559;61;20430;-55
2023/09/03 02:17:19;0.00;0.00;0.62;0.00;0.00;0.62;2.90;2.37;;;28.30;30.00;;;;;;2265324;61;20364;-55
2023/09/03 02:20:07;0.00;0.00;0.62;0.00;0.00;0.62;2.43;1.97;;;28.30;30.00;;;;;;2266136;61;20775;-56
2023/09/03 02:22:52;0.00;0.00;0.62;0.00;0.00;0.62;2.33;2.03;;;28.30;30.00;;;;;;2265926;61;20503;-54
2023/09/03 02:25:38;0.00;0.00;0.62;0.00;0.00;0.62;2.47;2.10;;;28.30;30.00;;;;;;2265408;61;20388;-57
2023/09/03 02:28:23;0.00;0.00;0.62;0.00;0.00;0.62;3.37;2.37;;;28.30;30.00;;;;;;2265641;61;20363;-58
2023/09/03 02:31:07;0.00;0.00;0.62;0.00;0.00;0.62;2.50;2.30;;;28.30;30.00;;;;;;2265763;61;20816;-55
2023/09/03 02:33:52;0.00;0.00;0.62;0.00;0.00;0.62;1.90;1.70;;;28.30;30.00;;;;;;2265297;61;20399;-52
2023/09/03 02:36:38;0.00;0.00;0.62;0.00;0.00;0.62;2.47;2.07;;;28.30;30.00;;;;;;2265648;61;20453;-57
2023/09/03 02:39:23;0.00;0.00;0.62;0.00;0.00;0.62;2.70;1.93;;;28.30;30.00;;;;;;2265682;61;20412;-53
2023/09/03 02:42:07;0.00;0.00;0.62;0.00;0.00;0.62;2.57;2.20;;;28.30;30.00;;;;;;2265787;61;20391;-51
2023/09/03 02:44:52;0.00;0.00;0.62;0.00;0.00;0.62;2.70;2.07;;;28.30;30.00;;;;;;2265559;61;20788;-57
2023/09/03 02:47:37;0.00;0.00;0.62;0.00;0.00;0.62;2.50;2.20;;;28.30;30.00;;;;;;2265891;61;20418;-57
2023/09/03 02:50:22;0.00;0.00;0.62;0.00;0.00;0.62;2.53;2.33;;;28.20;29.90;;;;;;2265532;61;20383;-56
2023/09/03 02:53:09;0.00;0.00;0.62;0.00;0.00;0.62;2.90;2.60;;;28.20;29.90;;;;;;2265308;61;20376;-56
2023/09/03 02:55:58;0.00;0.00;0.62;0.00;0.00;0.62;2.20;1.83;;;28.20;29.90;;;;;;2266075;61;20975;-54
2023/09/03 02:58:48;0.00;0.00;0.62;0.00;0.00;0.62;2.70;2.40;;;28.20;29.90;;;;;;2265629;61;20392;-55
2023/09/03 03:01:33;0.00;0.00;0.62;0.00;0.00;0.62;2.40;2.10;;;28.20;29.90;;;;;;2265021;61;20360;-55
2023/09/03 03:04:18;0.00;0.00;0.62;0.00;0.00;0.62;2.47;2.27;;;28.20;29.90;;;;;;2264995;61;20437;-57
2023/09/03 03:07:04;0.00;0.00;0.62;0.00;0.00;0.62;3.30;2.47;;;28.20;29.90;;;;;;2266010;61;20364;-58
2023/09/03 03:09:50;0.00;0.00;0.62;0.00;0.00;0.62;2.47;2.10;;;28.20;29.90;;;;;;2265953;61;20386;-51
2023/09/03 03:12:36;0.00;0.00;0.62;0.00;0.00;0.62;2.97;2.30;;;28.20;30.50;;;;;;2265188;61;20376;-55
2023/09/03 03:15:21;0.00;0.00;0.62;0.00;0.00;0.62;2.43;1.73;;;28.20;29.90;;;;;;2264745;61;20395;-57
2023/09/03 03:18:06;0.00;0.00;0.62;0.00;0.00;0.62;2.50;2.20;;;28.20;29.90;;;;;;2265569;61;20447;-55
2023/09/03 03:20:53;0.00;0.00;0.62;0.00;0.00;0.62;2.67;2.27;;;28.10;29.80;;;;;;2265932;61;20368;-57
2023/09/03 03:23:42;0.00;0.00;0.62;0.00;0.00;0.62;2.13;1.93;;;28.20;29.90;;;;;;2264942;61;20355;-55
2023/09/03 03:26:31;0.00;0.00;0.62;0.00;0.00;0.62;2.63;2.07;;;28.10;29.90;;;;;;2265508;61;20390;-56
2023/09/03 03:29:16;0.00;0.00;0.62;0.00;0.00;0.62;3.30;2.53;;;28.10;29.90;;;;;;2265346;61;20368;-52
2023/09/03 03:32:07;0.00;0.00;0.62;0.00;0.00;0.62;2.80;2.50;;;28.10;29.80;;;;;;2265146;61;20399;-54
2023/09/03 03:34:54;0.00;0.00;0.62;0.00;0.00;0.62;2.73;2.00;;;28.10;29.80;;;;;;2264968;61;20399;-57
2023/09/03 03:37:38;0.00;0.00;0.62;0.00;0.00;0.62;2.47;2.27;;;28.10;29.80;;;;;;2265873;61;20721;-55
2023/09/03 03:40:23;0.00;0.00;0.62;0.00;0.00;0.62;2.67;2.07;;;28.10;29.80;;;;;;2265891;61;20975;-57
2023/09/03 03:43:10;0.00;0.00;0.62;0.00;0.00;0.62;2.60;2.20;;;28.10;29.80;;;;;;2265909;61;20391;-54
2023/09/03 03:45:58;0.00;0.00;0.62;0.00;0.00;0.62;2.23;1.70;;;28.10;29.80;;;;;;2266297;61;20426;-57
2023/09/03 03:48:43;0.00;0.00;0.62;0.00;0.00;0.62;3.27;2.40;;;28.10;29.80;;;;;;2266363;61;20436;-57
2023/09/03 03:51:29;0.00;0.00;0.62;0.00;0.00;0.62;3.23;2.43;;;28.10;29.80;;;;;;2265864;61;20364;-55
2023/09/03 03:54:14;0.00;0.00;0.62;0.00;0.00;0.62;2.13;1.90;;;28.10;29.80;;;;;;2265971;61;20441;-57
2023/09/03 03:57:00;0.00;0.00;0.62;0.00;0.00;0.62;3.40;2.73;;;28.10;29.80;;;;;;2265928;61;20378;-54
2023/09/03 03:59:46;0.00;0.00;0.62;0.00;0.00;0.62;2.47;2.10;;;28.10;29.80;;;;;;2266032;61;20381;-55
2023/09/03 04:02:31;0.00;0.00;0.62;0.00;0.00;0.62;2.27;1.93;;;28.10;29.80;;;;;;2265589;61;20375;-52
2023/09/03 04:05:16;0.00;0.00;0.62;0.00;0.00;0.62;2.60;2.30;;;28.10;29.80;;;;;;2265306;61;20387;-52
2023/09/03 04:08:00;0.00;0.00;0.62;0.00;0.00;0.62;3.67;2.50;;;28.10;29.80;;;;;;2265589;61;20603;-54
2023/09/03 04:10:45;0.00;0.00;0.62;0.00;0.00;0.62;2.90;2.30;;;28.10;29.80;;;;;;2266362;61;20379;-56
2023/09/03 04:13:31;0.00;0.00;0.62;0.00;0.00;0.62;2.27;2.07;;;28.10;29.80;;;;;;2265275;61;20488;-55
2023/09/03 04:16:20;0.00;0.00;0.62;0.00;0.00;0.62;2.70;2.30;;;28.00;29.70;;;;;;2266131;61;20521;-55
2023/09/03 04:19:06;0.00;0.00;0.62;0.00;0.00;0.62;2.13;1.73;;;28.00;29.70;;;;;;2265746;61;20380;-55
2023/09/03 04:21:52;0.00;0.00;0.62;0.00;0.00;0.62;2.53;2.07;;;28.00;29.70;;;;;;2266501;61;20383;-54
2023/09/03 04:24:37;0.00;0.00;0.62;0.00;0.00;0.62;2.57;2.37;;;28.00;29.70;;;;;;2265859;61;20376;-58
2023/09/03 04:27:22;0.00;0.00;0.62;0.00;0.00;0.62;2.53;2.20;;;28.00;29.70;;;;;;2266086;61;20882;-52
2023/09/03 04:30:10;0.00;0.00;0.62;0.00;0.00;0.62;2.27;1.90;;;28.00;29.70;;;;;;2266501;61;20406;-55
2023/09/03 04:32:56;0.00;0.00;0.62;0.00;0.00;0.62;4.50;2.10;;;28.00;29.70;;;;;;2265893;61;20898;-55
2023/09/03 04:35:42;0.00;0.00;0.62;0.00;0.00;0.62;2.33;2.13;;;28.00;29.70;;;;;;2265757;61;20384;-57
2023/09/03 04:38:27;0.00;0.00;0.62;0.00;0.00;0.62;2.80;2.00;;;28.00;29.70;;;;;;2266357;61;20400;-55
2023/09/03 04:41:13;0.00;0.00;0.62;0.00;0.00;0.62;2.10;1.77;;;28.00;29.70;;;;;;2263233;61;20360;-51
2023/09/03 04:44:07;0.00;0.00;0.62;0.00;0.00;0.62;2.40;2.00;;;28.00;29.70;;;;;;2265578;61;20360;-55
2023/09/03 04:46:52;0.00;0.00;0.62;0.00;0.00;0.62;2.83;2.20;;;28.00;29.70;;;;;;2265949;61;20375;-53
2023/09/03 04:49:41;0.00;0.00;0.62;0.00;0.00;0.62;2.00;1.80;;;28.00;29.70;;;;;;2265821;61;20457;-54
2023/09/03 04:52:25;0.00;0.00;0.62;0.00;0.00;0.62;2.50;2.07;;;27.90;29.70;;;;;;2265617;61;20368;-52
2023/09/03 04:55:10;0.00;0.00;0.62;0.00;0.00;0.62;2.40;2.20;;;27.90;29.60;;;;;;2265059;61;20391;-58
2023/09/03 04:57:55;0.00;0.00;0.62;0.00;0.00;0.62;2.30;1.97;;;27.90;29.70;;;;;;2265818;61;20368;-57
2023/09/03 05:00:41;0.00;0.00;0.62;0.00;0.00;0.62;2.80;2.20;;;28.00;29.70;;;;;;2265913;61;20360;-52
2023/09/03 05:03:28;0.00;0.00;0.62;0.00;0.00;0.62;3.00;1.70;;;27.90;29.60;;;;;;2265475;61;20410;-54
2023/09/03 05:06:15;0.00;0.00;0.62;0.00;0.00;0.62;2.87;1.93;;;27.90;29.60;;;;;;2265886;61;20387;-55
2023/09/03 05:09:01;0.00;0.00;0.62;0.00;0.00;0.62;2.60;2.40;;;27.90;29.70;;;;;;2265642;61;20483;-57
2023/09/03 05:11:46;0.00;0.00;0.62;0.00;0.00;0.62;2.03;1.73;;;27.90;29.60;;;;;;2265839;61;20368;-65
2023/09/03 05:14:32;0.00;0.00;0.62;0.00;0.00;0.62;3.60;2.33;;;27.90;29.70;;;;;;2265065;61;20476;-54
2023/09/03 05:17:17;0.00;0.00;0.62;0.00;0.00;0.62;2.40;2.20;;;27.90;29.60;;;;;;2266274;61;20376;-56
2023/09/03 05:20:05;0.00;0.00;0.62;0.00;0.00;0.62;2.40;2.20;;;27.90;29.70;;;;;;2265908;61;20359;-52
2023/09/03 05:22:51;0.00;0.00;0.62;0.00;0.00;0.62;3.03;2.40;;;27.90;29.70;;;;;;2266282;61;20483;-52
2023/09/03 05:25:37;0.00;0.00;0.62;0.00;0.00;0.62;2.77;2.30;;;27.90;29.70;;;;;;2265285;61;20948;-61
2023/09/03 05:28:22;0.00;0.00;0.62;0.00;0.00;0.62;2.70;2.17;;;27.80;29.60;;;;;;2265699;61;20897;-53
2023/09/03 05:31:06;0.00;0.00;0.62;0.00;0.00;0.62;2.70;2.23;;;27.90;29.70;;;;;;2265764;61;20941;-53
2023/09/03 05:33:52;0.00;0.00;0.62;0.00;0.00;0.62;3.00;2.20;;;27.90;29.70;;;;;;2265140;61;20480;-57
2023/09/03 05:36:37;0.00;0.00;0.62;0.00;0.00;0.62;2.67;1.90;;;27.90;29.70;;;;;;2265403;61;20375;-55
2023/09/03 05:39:25;0.00;0.00;0.62;0.00;0.00;0.62;5.50;2.53;;;27.80;29.60;;;;;;2318432;57;20372;-54
2023/09/03 05:42:10;0.00;0.00;0.62;0.00;0.00;0.62;2.50;2.00;;;27.80;29.60;;;;;;2265673;61;20364;-55
2023/09/03 05:44:56;0.00;0.00;0.62;0.00;0.00;0.62;2.70;2.00;;;27.80;29.60;;;;;;2265907;61;20384;-57
2023/09/03 05:47:40;0.00;0.00;0.62;0.00;0.00;0.62;2.90;2.50;;;27.80;29.60;;;;;;2265681;61;20356;-55
2023/09/03 05:50:31;0.00;0.00;0.62;0.00;0.00;0.62;2.93;2.30;;;27.80;29.60;;;;;;2265556;61;20368;-57
2023/09/03 05:53:16;0.00;0.00;0.62;0.00;0.00;0.62;2.63;2.43;;;27.80;29.60;;;;;;2265222;61;20815;-54
2023/09/03 05:56:07;0.00;0.00;0.62;0.00;0.00;0.62;2.40;1.90;;;27.80;29.60;;;;;;2265566;61;20392;-58
2023/09/03 05:58:52;0.00;0.00;0.62;0.00;0.00;0.62;2.60;2.23;;;27.80;29.60;;;;;;2265377;61;20360;-57
2023/09/03 06:01:37;0.00;0.00;0.62;0.00;0.00;0.62;5.13;2.10;;;27.80;29.60;;;;;;2265654;61;20418;-55
2023/09/03 06:04:22;0.00;0.00;0.62;0.00;0.00;0.62;3.20;2.23;;;27.80;29.70;;;;;;2265587;61;20482;-55
2023/09/03 06:07:09;0.00;0.00;0.62;0.00;0.00;0.62;3.00;2.03;;;27.80;29.60;;;;;;2266148;61;20380;-55
2023/09/03 06:09:55;0.00;0.00;0.62;0.00;0.00;0.62;2.50;2.03;;;27.80;29.60;;;;;;2266206;61;20407;-55
2023/09/03 06:12:42;0.00;0.00;0.62;0.00;0.00;0.62;4.27;2.33;;;27.80;29.70;;;;;;2266006;61;20515;-53
2023/09/03 06:15:26;0.00;0.00;0.62;0.00;0.00;0.62;3.03;2.07;;;27.80;30.10;;;;;;2265933;61;20925;-55
2023/09/03 06:18:11;0.00;0.00;0.62;0.00;0.00;0.62;2.10;1.90;;;27.80;29.70;;;;;;2266056;61;20395;-56
2023/09/03 06:20:56;0.00;0.00;0.62;0.00;0.00;0.62;3.10;2.40;;;27.80;29.70;;;;;;2265743;61;20895;-51
2023/09/03 06:23:40;0.00;0.00;0.62;0.00;0.00;0.62;3.40;2.60;;;27.70;29.70;;;;;;2265128;61;20407;-53
2023/09/03 06:26:25;0.00;0.00;0.62;0.00;0.00;0.62;2.87;2.00;;;27.80;29.70;;;;;;2266104;61;20363;-53
2023/09/03 06:29:11;0.00;0.00;0.62;0.00;0.00;0.62;3.43;2.27;;;27.80;29.70;;;;;;2265211;61;20368;-55
2023/09/03 06:31:57;0.00;0.00;0.62;0.00;0.00;0.62;2.90;1.90;;;27.80;29.70;;;;;;2265949;61;20364;-58
2023/09/03 06:34:42;0.00;0.00;0.62;0.00;0.00;0.62;3.17;2.40;;;27.70;29.70;;;;;;2265157;61;20420;-56
2023/09/03 06:37:26;0.00;0.00;0.62;0.00;0.00;0.62;3.57;2.87;;;27.80;29.70;;;;;;2265720;61;20372;-55
2023/09/03 06:40:14;0.00;0.00;0.62;0.00;0.00;0.62;2.60;2.40;;;27.70;29.70;;;;;;2266024;61;20414;-54
2023/09/03 06:43:00;0.00;0.00;0.62;0.00;0.00;0.62;3.10;2.20;;;27.70;29.70;;;;;;2266029;61;20890;-52
2023/09/03 06:45:46;0.00;0.00;0.62;0.00;0.00;0.62;2.60;2.37;;;27.70;29.70;;;;;;2265467;61;20383;-58
2023/09/03 06:48:31;0.00;0.00;0.62;0.00;0.00;0.62;3.60;2.53;;;27.70;29.70;;;;;;2266181;61;20408;-56
2023/09/03 06:51:15;0.00;0.00;0.62;0.00;0.00;0.62;2.70;2.23;;;27.70;29.70;;;;;;2265972;61;20440;-54
2023/09/03 06:54:00;0.00;0.00;0.62;0.00;0.00;0.62;3.53;2.57;;;27.70;29.70;;;;;;2265715;61;20383;-56
2023/09/03 06:56:45;0.00;0.00;0.62;0.00;0.00;0.62;3.00;2.50;;;27.70;29.70;;;;;;2265380;61;20418;-56
2023/09/03 06:59:30;0.00;0.00;0.62;0.00;0.00;0.62;3.03;2.47;;;27.70;29.70;;;;;;2265961;61;20364;-56
2023/09/03 07:02:16;0.00;0.00;0.62;0.00;0.00;0.62;3.43;2.20;;;27.70;29.70;;;;;;2265851;61;20368;-51
2023/09/03 07:05:00;0.00;0.00;0.62;0.00;0.00;0.62;2.50;2.30;;;27.70;29.80;;;;;;2265254;61;20429;-55
2023/09/03 07:07:44;0.00;0.00;0.62;0.00;0.00;0.62;3.10;2.80;;;27.70;29.80;;;;;;2265580;61;20368;-57
2023/09/03 07:10:29;0.00;0.00;0.62;0.00;0.00;0.62;3.93;2.30;;;27.70;29.80;;;;;;2265776;61;20446;-54
2023/09/03 07:13:15;0.00;0.00;0.62;0.00;0.00;0.62;3.53;2.60;;;27.70;29.80;;;;;;2265382;61;20420;-55
2023/09/03 07:16:04;0.00;0.00;0.62;0.00;0.00;0.62;3.97;2.63;;;27.70;29.80;;;;;;2265979;61;20925;-57
2023/09/03 07:18:52;0.00;0.00;0.62;0.00;0.00;0.62;3.00;2.40;;;27.70;29.80;;;;;;2265994;61;20375;-59
2023/09/03 07:21:37;0.00;0.00;0.62;0.00;0.00;0.62;3.80;2.30;;;27.70;29.80;;;;;;2266533;61;20367;-56
2023/09/03 07:24:24;0.00;0.00;0.62;0.00;0.00;0.62;2.83;2.30;;;27.70;29.80;;;;;;2266127;61;20383;-54
2023/09/03 07:27:09;0.00;0.00;0.62;0.00;0.00;0.62;3.50;2.20;;;27.70;29.80;;;;;;2266261;61;20418;-57
2023/09/03 07:29:54;0.00;0.00;0.62;0.00;0.00;0.62;2.80;2.40;;;27.70;29.80;;;;;;2266338;61;20376;-55
2023/09/03 07:32:39;0.00;0.00;0.62;0.00;0.00;0.62;2.50;2.00;;;27.70;29.90;;;;;;2266522;61;20376;-53
2023/09/03 07:35:25;0.00;0.00;0.62;0.00;0.00;0.62;3.10;2.30;;;27.70;29.90;;;;;;2265048;61;20396;-55
2023/09/03 07:38:11;0.00;0.00;0.62;0.00;0.00;0.62;3.30;2.37;;;27.70;29.90;;;;;;2266154;61;20371;-55
2023/09/03 07:40:57;0.00;0.00;0.62;0.00;0.00;0.62;3.20;2.40;;;27.70;29.90;;;;;;2265656;61;20410;-57
2023/09/03 07:43:43;0.00;0.00;0.62;0.00;0.00;0.62;3.10;2.50;;;27.70;29.90;;;;;;2265379;61;20368;-57
2023/09/03 07:46:28;0.00;0.00;0.62;0.00;0.00;0.62;2.93;2.30;;;27.70;29.90;;;;;;2265685;61;20411;-52
2023/09/03 07:49:15;0.00;0.00;0.62;0.00;0.00;0.62;2.87;2.30;;;27.70;29.90;;;;;;2266114;61;20359;-56
2023/09/03 07:52:03;0.00;0.00;0.62;0.00;0.00;0.62;4.30;2.47;;;27.70;29.90;;;;;;2266382;61;20360;-54
2023/09/03 07:54:47;0.00;0.00;0.62;0.00;0.00;0.62;2.40;2.13;;;27.70;30.00;;;;;;2266123;61;20410;-54
2023/09/03 07:57:32;0.00;0.00;0.62;0.00;0.00;0.62;2.70;2.00;;;27.70;29.90;;;;;;2266328;61;20827;-49
2023/09/03 08:00:19;0.00;0.00;0.62;0.00;0.00;0.62;2.90;2.60;;;27.70;30.00;;;;;;2266560;61;20351;-54
2023/09/03 08:03:04;0.00;0.00;0.62;0.00;0.00;0.62;3.10;2.33;;;27.70;30.00;;;;;;2266234;61;20371;-55
2023/09/03 08:05:49;0.00;0.00;0.62;0.00;0.00;0.62;3.10;2.40;;;27.70;30.00;;;;;;2266340;61;20441;-52
2023/09/03 08:08:36;0.00;0.00;0.62;0.00;0.00;0.62;2.70;2.30;;;27.70;30.00;;;;;;2266326;61;20437;-55
2023/09/03 08:11:22;0.00;0.00;0.62;0.00;0.00;0.62;2.93;2.57;;;27.70;30.00;;;;;;2266027;61;20413;-55
2023/09/03 08:14:07;0.00;0.00;0.62;0.00;0.00;0.62;3.30;2.20;;;27.70;30.00;;;;;;2265528;61;20468;-56
2023/09/03 08:16:52;0.00;0.00;0.62;0.00;0.00;0.62;3.53;2.33;;;27.70;30.00;;;;;;2266254;61;20701;-54
2023/09/03 08:19:37;0.00;0.00;0.62;0.00;0.00;0.62;2.90;2.13;;;27.70;30.00;;;;;;2266274;61;20364;-53
2023/09/03 08:22:22;0.00;0.00;0.62;0.00;0.00;0.62;2.80;2.20;;;27.70;30.00;;;;;;2266225;61;20411;-57
2023/09/03 08:25:08;0.00;0.00;0.62;0.00;0.00;0.62;3.00;2.13;;;27.70;30.00;;;;;;2265815;61;20376;-52
2023/09/03 08:27:54;0.00;0.00;0.62;0.00;0.00;0.62;2.47;1.80;;;27.70;30.00;;;;;;2266470;61;20388;-55
2023/09/03 08:30:39;0.00;0.00;0.62;0.00;0.00;0.62;2.47;1.80;;;27.70;30.00;;;;;;2266339;61;20375;-54
2023/09/03 08:33:24;0.00;0.00;0.62;0.00;0.00;0.62;2.80;2.20;;;27.70;30.00;;;;;;2265596;61;20368;-55
2023/09/03 08:36:10;0.00;0.00;0.62;0.00;0.00;0.62;2.27;1.90;;;27.70;30.00;;;;;;2265715;61;20388;-55
2023/09/03 08:38:56;0.00;0.00;0.62;0.00;0.00;0.62;2.73;1.90;;;27.70;30.00;;;;;;2266314;61;20886;-53
2023/09/03 08:41:43;0.00;0.00;0.62;0.00;0.00;0.62;3.03;2.10;;;27.70;30.00;;;;;;2266167;61;20403;-56
2023/09/03 08:44:35;0.00;0.00;0.62;0.00;0.00;0.62;2.10;1.87;;;27.70;30.00;;;;;;2265757;61;20384;-55
2023/09/03 08:47:20;0.00;0.00;0.62;0.00;0.00;0.62;2.70;1.63;;;27.70;30.00;;;;;;2266209;61;20387;-54
2023/09/03 08:50:08;0.00;0.00;0.62;0.00;0.00;0.62;2.60;2.03;;;27.70;30.00;;;;;;2265674;61;20360;-56
2023/09/03 08:52:55;0.00;0.00;0.62;0.00;0.00;0.62;2.37;1.90;;;27.70;30.00;;;;;;2266193;61;20414;-55
2023/09/03 08:55:41;0.00;0.00;0.62;0.00;0.00;0.62;2.20;2.00;;;27.70;30.10;;;;;;2266056;61;21013;-51
2023/09/03 08:58:29;0.00;0.00;0.62;0.00;0.00;0.62;2.47;1.80;;;27.70;30.00;;;;;;2265309;61;20585;-58
2023/09/03 09:01:16;0.00;0.00;0.62;0.00;0.00;0.62;2.30;1.90;;;27.70;30.70;;;;;;2265870;61;20368;-53
2023/09/03 09:04:04;0.00;0.00;0.62;0.00;0.00;0.62;2.60;2.00;;;27.70;30.10;;;;;;2265195;61;20444;-60
2023/09/03 09:06:50;0.00;0.00;0.62;0.00;0.00;0.62;2.53;1.93;;;27.70;30.10;;;;;;2266122;61;20789;-54
2023/09/03 09:09:36;0.00;0.00;0.62;0.00;0.00;0.62;2.47;2.17;;;27.70;30.10;;;;;;2266089;61;20394;-55
2023/09/03 09:12:27;0.00;0.00;0.62;0.00;0.00;0.62;2.17;1.97;;;27.70;30.10;;;;;;2266317;61;20414;-55
2023/09/03 09:15:15;0.00;0.00;0.62;0.00;0.00;0.62;2.30;1.73;;;27.70;30.10;;;;;;2265166;61;20388;-55
2023/09/03 09:18:07;0.00;0.00;0.62;0.00;0.00;0.62;2.80;2.00;;;27.70;30.10;;;;;;2262753;61;20402;-55
2023/09/03 09:20:57;0.00;0.00;0.62;0.00;0.00;0.62;2.87;2.20;;;27.70;30.10;;;;;;2265792;61;20363;-55
2023/09/03 09:23:46;0.00;0.00;0.62;0.00;0.00;0.62;2.70;1.90;;;27.70;30.10;;;;;;2265236;61;20360;-56
2023/09/03 09:26:31;0.00;0.00;0.62;0.00;0.00;0.62;2.00;1.70;;;27.70;30.10;;;;;;2266216;61;20387;-56
2023/09/03 09:29:21;0.00;0.00;0.62;0.00;0.00;0.62;2.50;2.10;;;27.80;30.10;;;;;;2265907;61;20360;-57
2023/09/03 09:32:19;0.00;0.00;0.62;0.00;0.00;0.62;2.40;2.00;;;27.70;30.10;;;;;;2266051;61;20901;-52
2023/09/03 09:35:05;0.00;0.00;0.62;0.00;0.00;0.62;2.37;1.80;;;27.80;30.10;;;;;;2265638;61;20392;-54
2023/09/03 09:37:50;0.00;0.00;0.62;0.00;0.00;0.62;2.30;1.53;;;27.80;30.10;;;;;;2266113;61;20407;-52
2023/09/03 09:40:36;0.00;0.00;0.62;0.00;0.00;0.62;2.37;1.90;;;27.80;30.10;;;;;;2265975;61;20894;-51
2023/09/03 09:43:21;0.00;0.00;0.62;0.00;0.00;0.62;3.03;1.70;;;27.80;30.10;;;;;;2265957;61;20368;-52
2023/09/03 09:46:05;0.00;0.00;0.62;0.00;0.00;0.62;2.37;1.70;;;27.80;30.10;;;;;;2265612;61;20514;-58
2023/09/03 09:48:56;0.00;0.00;0.62;0.00;0.00;0.62;2.40;1.80;;;27.80;30.00;;;;;;2265438;61;20417;-54
2023/09/03 09:51:41;0.00;0.00;0.62;0.00;0.00;0.62;2.50;2.10;;;27.80;30.00;;;;;;2265968;61;20368;-56
2023/09/03 09:54:26;0.00;0.00;0.62;0.00;0.00;0.62;2.20;1.70;;;27.80;30.00;;;;;;2264909;61;20435;-57
2023/09/03 09:57:11;0.00;0.00;0.62;0.00;0.00;0.62;2.70;1.83;;;27.80;30.00;;;;;;2265484;61;20367;-56
2023/09/03 10:00:03;0.00;0.00;0.62;0.00;0.00;0.62;4.87;1.83;;;27.80;30.00;;;;;;2265968;61;20376;-57
2023/09/03 10:02:57;0.00;0.00;0.62;0.00;0.00;0.62;2.40;1.93;;;27.80;30.60;;;;;;2266028;61;20407;-53
2023/09/03 10:05:49;0.00;0.00;0.62;0.00;0.00;0.62;2.40;1.87;;;27.80;30.00;;;;;;2266516;61;20429;-52
2023/09/03 10:08:35;0.00;0.00;0.62;0.00;0.00;0.62;3.20;1.83;;;27.90;30.00;;;;;;2266361;61;20373;-56
2023/09/03 10:11:20;0.00;0.00;0.62;0.00;0.00;0.62;3.47;1.93;;;27.90;30.00;;;;;;2267191;61;20419;-58
2023/09/03 10:14:05;0.00;0.00;0.62;0.00;0.00;0.62;2.97;2.03;;;27.90;30.10;;;;;;2267595;61;20406;-56
2023/09/03 10:16:52;0.00;0.00;0.62;0.00;0.00;0.62;2.90;2.17;;;27.90;30.10;;;;;;2265748;61;20412;-57
2023/09/03 10:19:44;0.00;0.00;0.62;0.00;0.00;0.62;2.17;1.50;;;27.90;30.10;;;;;;2265968;61;20379;-57
2023/09/03 10:22:31;0.00;0.00;0.62;0.00;0.00;0.62;2.70;1.80;;;27.90;30.00;;;;;;2267433;61;20367;-55
2023/09/03 10:25:21;0.00;0.00;0.62;0.00;0.00;0.62;2.13;1.40;;;27.90;30.00;;;;;;2266512;61;20380;-52
2023/09/03 10:28:08;0.00;0.00;0.62;0.00;0.00;0.62;2.60;1.90;;;27.90;30.10;;;;;;2265642;61;20360;-57
2023/09/03 10:30:54;0.00;0.00;0.62;0.00;0.00;0.62;3.10;1.90;;;28.00;30.10;;;;;;2265102;61;20364;-55
2023/09/03 10:33:41;0.00;0.00;0.62;0.00;0.00;0.62;5.50;1.60;;;27.90;30.00;;;;;;2265794;61;20947;-56
2023/09/03 10:36:26;0.00;0.00;0.62;0.00;0.00;0.62;3.00;1.80;;;28.00;30.00;;;;;;2265378;61;20368;-56
2023/09/03 10:39:26;0.00;0.00;0.62;0.00;0.00;0.62;3.40;2.20;;;28.00;30.00;;;;;;2266002;61;20426;-56
2023/09/03 10:42:28;0.00;0.00;0.62;0.00;0.00;0.62;2.60;1.40;;;28.00;29.90;;;;;;2265967;61;20372;-55
2023/09/03 10:45:16;0.00;0.00;0.62;0.00;0.00;0.62;3.07;1.77;;;28.00;29.90;;;;;;2265348;61;20548;-57
2023/09/03 10:48:03;0.00;0.00;0.62;0.00;0.00;0.62;2.63;2.07;;;28.00;29.90;;;;;;2265343;61;20462;-57
2023/09/03 10:50:50;0.00;0.00;0.62;0.00;0.00;0.62;3.43;2.13;;;28.00;30.00;;;;;;2266045;61;20386;-56
2023/09/03 10:53:37;0.00;0.00;0.62;0.00;0.00;0.62;2.13;1.73;;;28.00;30.00;;;;;;2265410;61;20356;-57
2023/09/03 10:56:23;0.00;0.00;0.62;0.00;0.00;0.62;2.63;1.87;;;28.00;30.00;;;;;;2266118;61;20429;-57